createdAt,value
2022-09-22T00:02:17.004Z,6.22
2022-09-22T00:05:03.772Z,5.00
2022-09-22T00:07:49.713Z,4.78
2022-09-22T00:10:35.782Z,5.32
2022-09-22T00:13:21.735Z,5.85
2022-09-22T00:16:09.460Z,5.78
2022-09-22T00:18:55.661Z,4.75
2022-09-22T00:21:41.565Z,5.28
2022-09-22T00:24:28.201Z,4.47
2022-09-22T00:27:14.598Z,6.05
2022-09-22T00:30:00.801Z,8.73
2022-09-22T00:32:46.627Z,5.70
2022-09-22T00:35:32.641Z,5.47
2022-09-22T00:38:18.424Z,4.30
2022-09-22T00:41:05.069Z,5.07
2022-09-22T00:44:16.851Z,5.40
2022-09-22T00:47:09.549Z,5.97
2022-09-22T00:50:17.760Z,7.00
2022-09-22T00:53:12.470Z,4.20
2022-09-22T00:56:03.562Z,4.57
2022-09-22T00:58:54.632Z,5.63
2022-09-22T01:01:41.038Z,4.07
2022-09-22T01:04:27.999Z,16.08
2022-09-22T01:07:14.183Z,5.95
2022-09-22T01:10:00.120Z,5.22
2022-09-22T01:13:19.070Z,4.65
2022-09-22T01:16:20.249Z,6.97
2022-09-22T01:19:39.920Z,5.10
2022-09-22T01:22:49.832Z,5.53
2022-09-22T01:25:48.412Z,7.70
2022-09-22T01:29:12.039Z,6.55
2022-09-22T01:32:27.742Z,5.72
2022-09-22T01:35:49.746Z,5.82
2022-09-22T01:38:52.674Z,6.65
2022-09-22T01:41:51.980Z,6.43
2022-09-22T01:44:54.533Z,5.85
2022-09-22T01:47:41.165Z,8.38
2022-09-22T01:50:30.541Z,7.93
2022-09-22T01:53:19.780Z,5.80
2022-09-22T01:56:08.171Z,5.43
2022-09-22T01:58:57.013Z,6.93
2022-09-22T02:01:49.454Z,5.70
2022-09-22T02:04:42.324Z,7.63
2022-09-22T02:07:35.229Z,5.20
2022-09-22T02:10:25.520Z,4.78
2022-09-22T02:13:12.108Z,7.80
2022-09-22T02:16:00.995Z,5.75
2022-09-22T02:18:54.228Z,6.82
2022-09-22T02:21:42.548Z,7.35
2022-09-22T02:24:39.978Z,5.13
2022-09-22T02:27:27.764Z,10.00
2022-09-22T02:30:14.293Z,6.85
2022-09-22T02:33:01.013Z,6.25
2022-09-22T02:35:48.869Z,6.78
2022-09-22T02:38:44.714Z,5.35
2022-09-22T02:42:02.138Z,6.78
2022-09-22T02:44:55.824Z,7.80
2022-09-22T02:47:54.265Z,7.53
2022-09-22T02:50:40.273Z,9.13
2022-09-22T02:53:26.082Z,5.32
2022-09-22T02:56:12.065Z,7.10
2022-09-22T02:58:58.758Z,5.10
2022-09-22T03:01:45.177Z,5.93
2022-09-22T03:04:31.206Z,5.15
2022-09-22T03:07:18.402Z,5.50
2022-09-22T03:10:05.353Z,7.43
2022-09-22T03:13:14.925Z,5.90
2022-09-22T03:15:58.046Z,6.00
2022-09-22T03:18:43.818Z,5.80
2022-09-22T03:21:29.672Z,7.03
2022-09-22T03:24:15.814Z,5.13
2022-09-22T03:27:01.916Z,5.15
2022-09-22T03:29:47.712Z,9.98
2022-09-22T03:32:34.101Z,5.95
2022-09-22T03:35:19.958Z,6.47
2022-09-22T03:38:05.873Z,4.53
2022-09-22T03:40:52.893Z,5.28
2022-09-22T03:43:38.945Z,6.25
2022-09-22T03:46:26.965Z,5.40
2022-09-22T03:49:12.765Z,6.13
2022-09-22T03:51:58.545Z,5.25
2022-09-22T03:54:44.481Z,5.60
2022-09-22T03:57:30.478Z,5.38
2022-09-22T04:00:16.982Z,4.88
2022-09-22T04:03:02.790Z,5.63
2022-09-22T04:05:49.946Z,5.53
2022-09-22T04:08:36.293Z,3.90
2022-09-22T04:11:23.631Z,4.80
2022-09-22T04:14:10.112Z,5.18
2022-09-22T04:16:56.775Z,5.22
2022-09-22T04:19:43.093Z,8.68
2022-09-22T04:22:29.049Z,4.57
2022-09-22T04:25:15.278Z,4.93
2022-09-22T04:28:05.421Z,5.68
2022-09-22T04:30:51.611Z,6.13
2022-09-22T04:33:37.489Z,5.00
2022-09-22T04:36:23.621Z,5.43
2022-09-22T04:39:09.355Z,5.45
2022-09-22T04:41:55.596Z,4.97
2022-09-22T04:44:41.520Z,5.43
2022-09-22T04:47:28.981Z,6.53
2022-09-22T04:50:15.491Z,6.22
2022-09-22T04:53:01.811Z,6.65
2022-09-22T04:55:49.728Z,6.38
2022-09-22T04:58:35.561Z,9.00
2022-09-22T05:01:21.461Z,12.52
2022-09-22T05:04:07.254Z,9.45
2022-09-22T05:06:53.239Z,9.48
2022-09-22T05:09:39.029Z,12.32
2022-09-22T05:12:24.978Z,18.30
2022-09-22T05:15:12.660Z,14.60
2022-09-22T05:17:59.327Z,17.75
2022-09-22T05:20:45.891Z,18.05
2022-09-22T05:23:32.226Z,9.80
2022-09-22T05:26:18.065Z,13.38
2022-09-22T05:29:04.350Z,11.80
2022-09-22T05:31:50.335Z,18.35
2022-09-22T05:34:36.232Z,9.90
2022-09-22T05:37:22.130Z,6.78
2022-09-22T05:40:08.447Z,8.00
2022-09-22T05:42:54.594Z,9.07
2022-09-22T05:45:40.599Z,7.05
2022-09-22T05:48:30.887Z,4.38
2022-09-22T05:51:17.117Z,4.40
2022-09-22T05:54:03.099Z,7.57
2022-09-22T05:56:49.049Z,7.80
2022-09-22T05:59:34.854Z,8.27
2022-09-22T06:02:26.105Z,7.97
2022-09-22T06:05:16.700Z,4.32
2022-09-22T06:08:06.324Z,11.80
2022-09-22T06:10:52.846Z,13.77
2022-09-22T06:13:39.689Z,5.80
2022-09-22T06:16:26.068Z,6.32
2022-09-22T06:19:12.015Z,5.55
2022-09-22T06:21:57.837Z,5.72
2022-09-22T06:24:44.282Z,6.63
2022-09-22T06:27:30.069Z,5.93
2022-09-22T06:30:16.039Z,4.03
2022-09-22T06:33:03.119Z,4.90
2022-09-22T06:35:48.912Z,9.65
2022-09-22T06:38:34.729Z,7.70
2022-09-22T06:41:20.586Z,4.65
2022-09-22T06:44:08.125Z,6.53
2022-09-22T06:46:53.856Z,5.03
2022-09-22T06:49:39.682Z,4.72
2022-09-22T06:52:27.246Z,4.32
2022-09-22T06:55:19.433Z,3.42
2022-09-22T06:58:05.483Z,2.97
2022-09-22T07:00:51.350Z,6.25
2022-09-22T07:03:42.689Z,4.68
2022-09-22T07:06:28.615Z,3.45
2022-09-22T07:09:14.611Z,4.35
2022-09-22T07:12:00.536Z,5.70
2022-09-22T07:14:49.465Z,6.40
2022-09-22T07:17:36.973Z,3.03
2022-09-22T07:20:23.292Z,4.43
2022-09-22T07:23:14.159Z,4.63
2022-09-22T07:26:01.288Z,6.03
2022-09-22T07:28:51.558Z,4.10
2022-09-22T07:31:37.904Z,4.40
2022-09-22T07:34:24.017Z,4.63
2022-09-22T07:37:12.848Z,4.13
2022-09-22T07:40:00.718Z,3.00
2022-09-22T07:42:49.853Z,3.78
2022-09-22T07:45:35.579Z,3.47
2022-09-22T07:48:40.515Z,3.47
2022-09-22T07:51:27.500Z,4.35
2022-09-22T07:54:13.664Z,4.22
2022-09-22T07:56:59.614Z,5.97
2022-09-22T07:59:45.778Z,3.65
2022-09-22T08:02:31.735Z,3.70
2022-09-22T08:05:18.063Z,5.93
2022-09-22T08:08:06.015Z,3.55
2022-09-22T08:10:51.870Z,3.35
2022-09-22T08:13:39.117Z,3.38
2022-09-22T08:16:30.319Z,4.35
2022-09-22T08:19:16.745Z,5.93
2022-09-22T08:22:02.868Z,5.38
2022-09-22T08:24:48.864Z,4.13
2022-09-22T08:27:36.621Z,4.00
2022-09-22T08:30:22.420Z,7.22
2022-09-22T08:33:08.448Z,4.28
2022-09-22T08:35:56.600Z,3.42
2022-09-22T08:38:42.931Z,4.25
2022-09-22T08:41:31.738Z,3.92
2022-09-22T08:44:26.346Z,3.67
2022-09-22T08:47:38.842Z,6.72
2022-09-22T08:50:55.640Z,3.78
2022-09-22T08:53:46.177Z,4.30
2022-09-22T08:56:55.192Z,4.60
2022-09-22T08:59:56.362Z,2.92
2022-09-22T09:03:01.234Z,3.30
2022-09-22T09:06:12.240Z,5.88
2022-09-22T09:09:13.230Z,3.45
2022-09-22T09:12:08.788Z,2.55
2022-09-22T09:15:16.095Z,3.50
2022-09-22T09:18:07.054Z,4.32
2022-09-22T09:20:53.350Z,3.40
2022-09-22T09:26:52.424Z,2.70
2022-09-22T09:29:55.923Z,3.38
2022-09-22T09:32:50.889Z,2.25
2022-09-22T09:35:45.349Z,2.70
2022-09-22T09:38:35.033Z,5.10
2022-09-22T09:41:23.879Z,5.40
2022-09-22T09:44:20.204Z,3.33
2022-09-22T09:47:42.148Z,5.47
2022-09-22T09:50:32.350Z,3.47
2022-09-22T09:53:33.595Z,4.00
2022-09-22T09:56:30.109Z,3.25
2022-09-22T09:59:34.605Z,2.92
2022-09-22T10:02:49.519Z,3.40
2022-09-22T10:05:37.639Z,2.13
2022-09-22T10:08:24.497Z,3.70
2022-09-22T10:11:12.598Z,2.28
2022-09-22T10:13:58.940Z,3.53
2022-09-22T10:16:53.974Z,7.07
2022-09-22T10:19:39.977Z,7.45
2022-09-22T10:22:28.045Z,4.47
2022-09-22T10:25:23.101Z,2.33
2022-09-22T10:28:20.423Z,5.22
2022-09-22T10:31:06.726Z,2.42
2022-09-22T10:34:00.566Z,5.88
2022-09-22T10:36:46.961Z,5.30
2022-09-22T10:39:41.723Z,4.00
2022-09-22T10:42:40.349Z,5.55
2022-09-22T10:45:42.030Z,6.93
2022-09-22T10:48:39.620Z,3.35
2022-09-22T10:51:25.656Z,4.80
2022-09-22T10:54:32.339Z,4.68
2022-09-22T10:57:33.985Z,2.45
2022-09-22T11:00:21.641Z,1.95
2022-09-22T11:03:13.359Z,2.78
2022-09-22T11:06:25.151Z,2.95
2022-09-22T11:09:48.388Z,4.97
2022-09-22T11:12:46.770Z,7.32
2022-09-22T11:15:42.724Z,4.15
2022-09-22T11:18:28.786Z,5.72
2022-09-22T11:21:41.817Z,1.80
2022-09-22T11:24:48.620Z,2.05
2022-09-22T11:27:48.211Z,2.03
2022-09-22T11:30:42.985Z,3.70
2022-09-22T11:33:31.966Z,3.72
2022-09-22T11:36:35.292Z,2.17
2022-09-22T11:39:31.489Z,3.95
2022-09-22T11:42:27.116Z,2.70
2022-09-22T11:46:15.142Z,7.68
2022-09-22T11:49:07.177Z,1.90
2022-09-22T11:52:08.150Z,3.15
2022-09-22T11:55:00.326Z,2.53
2022-09-22T11:57:51.126Z,1.58
2022-09-22T12:00:45.431Z,2.88
2022-09-22T12:03:46.271Z,2.22
2022-09-22T12:06:41.339Z,2.45
2022-09-22T12:09:51.967Z,3.22
2022-09-22T12:12:37.980Z,2.78
2022-09-22T12:15:28.929Z,2.08
2022-09-22T12:18:30.008Z,3.67
2022-09-22T12:21:31.366Z,10.40
2022-09-22T12:24:17.689Z,15.45
2022-09-22T12:27:24.030Z,15.65
2022-09-22T12:30:21.714Z,18.38
2022-09-22T12:33:15.524Z,12.43
2022-09-22T12:36:03.080Z,11.18
2022-09-22T12:38:50.016Z,17.75
2022-09-22T12:41:48.316Z,9.40
2022-09-22T12:44:44.500Z,8.80
2022-09-22T12:47:41.322Z,7.03
2022-09-22T12:50:32.041Z,10.65
2022-09-22T12:53:21.603Z,9.60
2022-09-22T12:56:46.748Z,5.03
2022-09-22T12:59:38.661Z,7.03
2022-09-22T13:02:31.910Z,8.02
2022-09-22T13:05:24.243Z,10.88
2022-09-22T13:08:17.414Z,14.07
2022-09-22T13:11:05.817Z,17.08
2022-09-22T13:13:52.580Z,7.90
2022-09-22T13:16:39.077Z,14.27
2022-09-22T13:19:24.765Z,8.15
2022-09-22T13:22:20.684Z,12.93
2022-09-22T13:25:15.032Z,10.57
2022-09-22T13:28:04.361Z,11.07
2022-09-22T13:31:17.164Z,10.93
2022-09-22T13:34:26.227Z,15.20
2022-09-22T13:37:18.236Z,8.00
2022-09-22T13:40:09.587Z,6.28
2022-09-22T13:43:00.073Z,6.72
2022-09-22T13:45:46.234Z,5.13
2022-09-22T13:48:36.708Z,3.53
2022-09-22T13:51:25.046Z,5.50
2022-09-22T13:54:16.350Z,3.83
2022-09-22T13:57:05.139Z,3.40
2022-09-22T13:59:52.550Z,4.93
2022-09-22T14:02:44.084Z,3.13
2022-09-22T14:05:34.197Z,6.40
2022-09-22T14:08:29.740Z,2.65
2022-09-22T14:11:30.525Z,6.05
2022-09-22T14:14:23.520Z,12.63
2022-09-22T14:17:15.943Z,11.00
2022-09-22T14:20:04.783Z,11.27
2022-09-22T14:22:51.131Z,12.77
2022-09-22T14:25:37.306Z,10.63
2022-09-22T14:28:35.634Z,12.65
2022-09-22T14:31:25.010Z,12.95
2022-09-22T14:34:17.891Z,21.52
2022-09-22T14:37:16.972Z,15.73
2022-09-22T14:40:06.083Z,10.93
2022-09-22T14:43:41.150Z,11.15
2022-09-22T14:46:27.533Z,13.00
2022-09-22T14:49:36.952Z,11.63
2022-09-22T14:52:28.777Z,9.90
2022-09-22T14:55:36.695Z,7.50
2022-09-22T14:58:27.703Z,10.65
2022-09-22T15:01:51.008Z,7.55
2022-09-22T15:07:33.316Z,23.60
2022-09-22T15:10:28.035Z,13.65
2022-09-22T15:13:39.386Z,9.30
2022-09-22T15:16:41.809Z,7.75
2022-09-22T15:19:28.003Z,4.82
2022-09-22T15:22:14.481Z,3.83
2022-09-22T15:25:00.405Z,8.65
2022-09-22T15:27:46.255Z,2.63
2022-09-22T15:30:32.796Z,3.92
2022-09-22T15:33:19.909Z,5.28
2022-09-22T15:36:13.667Z,7.35
2022-09-22T15:39:07.376Z,7.45
2022-09-22T15:41:53.676Z,5.65
2022-09-22T15:44:40.487Z,4.32
2022-09-22T15:47:27.201Z,7.13
2022-09-22T15:50:17.418Z,4.93
2022-09-22T15:53:03.333Z,6.28
2022-09-22T15:55:54.097Z,7.07
2022-09-22T15:58:42.320Z,7.03
2022-09-22T16:01:29.495Z,10.23
2022-09-22T16:04:15.512Z,6.63
2022-09-22T16:07:05.837Z,3.20
2022-09-22T16:09:52.133Z,4.78
2022-09-22T16:12:39.137Z,4.72
2022-09-22T16:15:25.392Z,4.78
2022-09-22T16:18:11.281Z,5.38
2022-09-22T16:21:07.747Z,7.95
2022-09-22T16:24:00.500Z,9.38
2022-09-22T16:26:49.253Z,11.82
2022-09-22T16:29:37.573Z,10.88
2022-09-22T16:32:23.318Z,13.20
2022-09-22T16:35:09.661Z,10.95
2022-09-22T16:37:55.836Z,7.55
2022-09-22T16:40:42.625Z,10.73
2022-09-22T16:43:28.475Z,13.30
2022-09-22T16:46:26.875Z,7.30
2022-09-22T16:49:16.285Z,7.72
2022-09-22T16:52:02.404Z,8.32
2022-09-22T16:54:48.253Z,11.40
2022-09-22T16:57:34.163Z,10.75
2022-09-22T17:00:20.173Z,8.43
2022-09-22T17:03:05.972Z,7.07
2022-09-22T17:06:01.893Z,9.30
2022-09-22T17:08:47.794Z,11.00
2022-09-22T17:11:36.681Z,12.85
2022-09-22T17:14:23.080Z,15.05
2022-09-22T17:17:09.974Z,14.88
2022-09-22T17:19:56.276Z,15.93
2022-09-22T17:22:42.341Z,25.70
2022-09-22T17:25:29.187Z,19.33
2022-09-22T17:28:16.568Z,23.52
2022-09-22T17:31:07.563Z,14.70
2022-09-22T17:33:55.032Z,14.63
2022-09-22T17:36:41.034Z,10.20
2022-09-22T17:39:28.584Z,6.75
2022-09-22T17:42:15.501Z,7.43
2022-09-22T17:45:02.872Z,7.78
2022-09-22T17:48:07.473Z,9.98
2022-09-22T17:51:12.248Z,6.25
2022-09-22T17:54:16.699Z,8.20
2022-09-22T17:57:02.612Z,6.25
2022-09-22T17:59:49.104Z,7.30
2022-09-22T18:02:41.812Z,7.38
2022-09-22T18:05:28.166Z,7.50
2022-09-22T18:08:16.977Z,4.13
2022-09-22T18:11:02.945Z,6.30
2022-09-22T18:13:50.725Z,5.55
2022-09-22T18:16:37.431Z,8.35
2022-09-22T18:19:27.654Z,8.50
2022-09-22T18:22:16.943Z,8.13
2022-09-22T18:25:02.779Z,6.30
2022-09-22T18:27:48.839Z,4.68
2022-09-22T18:30:34.867Z,6.75
2022-09-22T18:33:21.673Z,7.18
2022-09-22T18:36:07.795Z,7.40
2022-09-22T18:38:55.267Z,6.63
2022-09-22T18:41:41.365Z,7.90
2022-09-22T18:44:30.069Z,7.47
2022-09-22T18:47:18.573Z,4.85
2022-09-22T18:50:05.365Z,5.13
2022-09-22T18:52:54.407Z,6.63
2022-09-22T18:55:40.336Z,6.85
2022-09-22T18:58:26.166Z,5.68
2022-09-22T19:01:13.793Z,5.80
2022-09-22T19:04:05.831Z,9.30
2022-09-22T19:07:12.519Z,10.70
2022-09-22T19:09:58.476Z,8.10
2022-09-22T19:12:44.787Z,11.18
2022-09-22T19:15:30.854Z,10.00
2022-09-22T19:18:16.643Z,15.80
2022-09-22T19:21:03.909Z,12.55
2022-09-22T19:23:50.102Z,11.57
2022-09-22T19:26:42.212Z,10.40
2022-09-22T19:29:28.824Z,17.13
2022-09-22T19:32:14.862Z,16.85
2022-09-22T19:35:01.030Z,13.15
2022-09-22T19:37:47.912Z,10.88
2022-09-22T19:40:34.361Z,10.35
2022-09-22T19:43:20.521Z,10.40
2022-09-22T19:46:06.478Z,8.05
2022-09-22T19:48:52.344Z,8.23
2022-09-22T19:51:39.541Z,10.77
2022-09-22T19:54:25.701Z,12.48
2022-09-22T19:57:13.209Z,7.70
2022-09-22T19:59:59.132Z,8.95
2022-09-22T20:02:45.590Z,8.07
2022-09-22T20:05:37.023Z,7.35
2022-09-22T20:08:23.068Z,8.85
2022-09-22T20:11:25.714Z,7.57
2022-09-22T20:14:23.655Z,8.77
2022-09-22T20:17:09.706Z,8.18
2022-09-22T20:19:55.977Z,8.00
2022-09-22T20:22:42.188Z,7.03
2022-09-22T20:25:31.286Z,6.53
2022-09-22T20:28:17.779Z,8.23
2022-09-22T20:31:03.948Z,9.73
2022-09-22T20:33:50.626Z,11.02
2022-09-22T20:36:37.363Z,9.15
2022-09-22T20:39:23.718Z,7.80
2022-09-22T20:42:10.018Z,8.52
2022-09-22T20:44:56.353Z,15.30
2022-09-22T20:47:42.229Z,7.35
2022-09-22T20:50:28.393Z,9.38
2022-09-22T20:53:14.673Z,9.88
2022-09-22T20:56:05.543Z,11.98
2022-09-22T20:58:51.753Z,12.00
2022-09-22T21:01:37.728Z,8.50
2022-09-22T21:04:23.796Z,9.27
2022-09-22T21:07:10.206Z,9.45
2022-09-22T21:10:14.538Z,6.85
2022-09-22T21:13:03.446Z,9.05
2022-09-22T21:15:57.486Z,8.95
2022-09-22T21:18:43.617Z,11.32
2022-09-22T21:21:31.225Z,7.82
2022-09-22T21:24:17.383Z,4.18
2022-09-22T21:27:03.432Z,6.47
2022-09-22T21:29:49.523Z,8.52
2022-09-22T21:32:35.825Z,7.18
2022-09-22T21:35:21.824Z,6.68
2022-09-22T21:38:07.716Z,6.78
2022-09-22T21:40:58.469Z,5.45
2022-09-22T21:43:44.858Z,11.32
2022-09-22T21:46:31.278Z,7.40
2022-09-22T21:49:17.525Z,3.72
2022-09-22T21:52:03.569Z,4.63
2022-09-22T21:54:50.703Z,4.20
2022-09-22T21:57:36.620Z,5.78
2022-09-22T22:00:47.976Z,6.97
2022-09-22T22:03:31.694Z,7.30
2022-09-22T22:06:19.491Z,9.90
2022-09-22T22:09:19.488Z,12.90
2022-09-22T22:12:05.538Z,12.68
2022-09-22T22:14:51.557Z,26.55
2022-09-22T22:17:37.337Z,13.18
2022-09-22T22:20:23.506Z,14.65
2022-09-22T22:23:10.175Z,10.70
2022-09-22T22:26:00.972Z,6.90
2022-09-22T22:28:48.558Z,9.65
2022-09-22T22:31:35.418Z,13.30
2022-09-22T22:34:25.517Z,12.65
2022-09-22T22:37:11.501Z,19.25
2022-09-22T22:39:57.575Z,10.13
2022-09-22T22:42:43.533Z,11.30
2022-09-22T22:45:29.420Z,8.55
2022-09-22T22:48:16.354Z,11.18
2022-09-22T22:51:11.585Z,5.95
2022-09-22T22:53:57.840Z,7.90
2022-09-22T22:56:45.861Z,5.22
2022-09-22T22:59:32.468Z,9.65
2022-09-22T23:02:18.446Z,4.95
2022-09-22T23:05:05.019Z,5.55
2022-09-22T23:07:53.412Z,3.53
2022-09-22T23:10:39.365Z,5.05
2022-09-22T23:13:25.131Z,5.30
2022-09-22T23:16:13.857Z,7.43
2022-09-22T23:19:01.863Z,6.50
2022-09-22T23:21:47.967Z,5.43
2022-09-22T23:24:33.881Z,5.97
2022-09-22T23:27:19.887Z,7.90
2022-09-22T23:30:06.951Z,6.07
2022-09-22T23:32:53.084Z,5.53
2022-09-22T23:35:40.201Z,4.75
2022-09-22T23:38:29.352Z,6.20
2022-09-22T23:41:15.434Z,4.65
2022-09-22T23:44:03.281Z,3.58
2022-09-22T23:46:49.555Z,3.85
2022-09-22T23:49:35.433Z,5.25
2022-09-22T23:52:22.483Z,4.18
2022-09-22T23:55:09.001Z,4.72
2022-09-22T23:57:54.862Z,4.07
